Time;durP1;ratioP1;P1;durP2;ratioP2;P2;SDS_P1;SDS_P2;PMS_P1;PMS_P2;Temp;Humidity;BMP_temperature;BMP_pressure;BME280_temperature;BME280_humidity;BME280_pressure;Samples;Min_cycle;Max_cycle;Signal;HPM_P1;HPM_P2
2023/07/16 00:00:35;;;;;;;3.07;2.70;;;;;;;;;;5033353;28;20178;-79
2023/07/16 00:03:03;;;;;;;3.43;3.13;;;;;;;;;;5036092;28;20620;-78
2023/07/16 00:05:29;;;;;;;3.33;3.00;;;;;;;;;;5041839;28;20198;-78
2023/07/16 00:07:56;;;;;;;5.20;3.20;;;;;;;;;;5038172;28;20200;-78
2023/07/16 00:10:22;;;;;;;3.07;2.77;;;;;;;;;;5033650;28;20201;-78
2023/07/16 00:12:48;;;;;;;3.63;3.03;;;;;;;;;;5033479;28;20585;-79
2023/07/16 00:15:14;;;;;;;3.50;3.20;;;31.10;35.90;;;;;;5043851;28;20198;-78
2023/07/16 00:17:40;;;;;;;3.37;3.00;;;22.10;99.90;;;;;;5035494;28;20167;-78
2023/07/16 00:20:06;;;;;;;4.43;3.30;;;21.90;99.90;;;;;;5038909;28;20257;-78
2023/07/16 00:22:32;;;;;;;3.50;3.20;;;21.80;99.90;;;;;;5043985;28;20216;-78
2023/07/16 00:24:57;;;;;;;4.30;3.50;;;21.80;99.90;;;;;;5034715;28;20206;-78
2023/07/16 00:27:23;;;;;;;4.90;4.00;;;21.80;99.90;;;;;;5037274;28;20174;-78
2023/07/16 00:29:49;;;;;;;4.00;3.60;;;21.70;99.90;;;;;;5041475;28;20183;-78
2023/07/16 00:32:15;;;;;;;4.50;3.67;;;21.60;99.90;;;;;;5035492;28;20665;-79
2023/07/16 00:34:41;;;;;;;7.10;4.00;;;21.60;99.90;;;;;;5041638;28;20233;-81
2023/07/16 00:37:08;;;;;;;4.60;3.80;;;21.70;99.90;;;;;;5036892;28;20597;-78
2023/07/16 00:39:33;;;;;;;6.80;3.70;;;21.60;99.90;;;;;;5036777;28;20250;-78
2023/07/16 00:41:59;;;;;;;3.70;3.30;;;21.70;99.90;;;;;;5031629;28;20649;-79
2023/07/16 00:44:25;;;;;;;4.10;3.60;;;21.60;99.90;;;;;;5037196;28;20206;-78
2023/07/16 00:46:52;;;;;;;3.90;3.40;;;21.60;99.90;;;;;;5037974;28;20182;-79
2023/07/16 00:49:18;;;;;;;4.60;3.97;;;21.60;99.90;;;;;;5038535;28;20175;-78
2023/07/16 00:51:44;;;;;;;4.40;3.40;;;21.60;99.90;;;;;;5036867;28;20256;-79
2023/07/16 00:54:10;;;;;;;4.70;3.50;;;21.60;99.90;;;;;;5038854;28;20205;-78
2023/07/16 00:56:37;;;;;;;4.83;3.60;;;21.60;99.90;;;;;;5019945;28;20194;-78
2023/07/16 00:59:03;;;;;;;4.43;3.60;;;21.60;99.90;;;;;;5034382;28;20182;-78
2023/07/16 01:01:28;;;;;;;4.30;3.60;;;21.50;99.90;;;;;;5031568;28;20193;-78
2023/07/16 01:03:54;;;;;;;3.97;3.57;;;21.50;99.90;;;;;;5037328;28;20202;-78
2023/07/16 01:06:39;;;;;;;4.73;3.70;;;21.60;99.90;;;;;;5039012;28;20689;-78
2023/07/16 01:09:14;;;;;;;6.80;3.60;;;21.50;99.90;;;;;;5026871;28;20221;-78
2023/07/16 01:11:42;;;;;;;4.03;3.33;;;21.50;99.90;;;;;;5038847;28;20630;-78
2023/07/16 01:14:08;;;;;;;5.20;3.60;;;21.60;99.90;;;;;;5045167;28;20186;-78
2023/07/16 01:16:34;;;;;;;4.03;3.63;;;21.60;99.90;;;;;;5029722;28;20193;-78
2023/07/16 01:18:59;;;;;;;5.73;3.93;;;21.60;99.90;;;;;;5031763;28;20550;-78
2023/07/16 01:21:30;;;;;;;5.37;3.40;;;21.60;99.90;;;;;;5036311;28;20178;-78
2023/07/16 01:24:07;;;;;;;4.10;3.70;;;21.60;99.90;;;;;;5030164;28;20686;-78
2023/07/16 01:26:55;;;;;;;4.97;3.70;;;21.60;99.90;;;;;;5031023;28;20297;-78
2023/07/16 01:29:30;;;;;;;3.97;3.57;;;21.60;99.90;;;;;;5030937;28;20202;-79
2023/07/16 01:31:59;;;;;;;4.17;3.77;;;21.50;99.90;;;;;;5032772;28;20185;-78
2023/07/16 01:34:28;;;;;;;5.40;3.63;;;21.50;99.90;;;;;;5030479;28;20206;-78
2023/07/16 01:36:54;;;;;;;5.10;3.90;;;21.40;99.90;;;;;;5037717;28;20275;-78
2023/07/16 01:39:20;;;;;;;4.40;3.57;;;21.30;99.90;;;;;;5035183;28;20182;-78
2023/07/16 01:41:46;;;;;;;4.63;3.80;;;21.30;99.90;;;;;;5048828;28;20190;-78
2023/07/16 01:44:12;;;;;;;4.37;3.57;;;21.30;99.90;;;;;;5027454;28;20241;-78
2023/07/16 01:46:38;;;;;;;4.70;3.57;;;21.30;99.90;;;;;;5036395;28;20182;-78
2023/07/16 01:49:04;;;;;;;5.70;3.70;;;21.20;99.90;;;;;;5037746;28;20175;-78
2023/07/16 01:51:29;;;;;;;3.40;3.10;;;21.30;99.90;;;;;;5037870;28;20170;-78
2023/07/16 01:53:55;;;;;;;3.27;2.80;;;21.20;99.90;;;;;;5034962;28;20179;-79
2023/07/16 01:56:21;;;;;;;3.63;3.00;;;21.20;99.90;;;;;;5039790;28;20627;-78
2023/07/16 01:58:47;;;;;;;3.60;2.37;;;21.20;99.90;;;;;;5033106;28;20646;-79
2023/07/16 02:01:13;;;;;;;3.67;2.50;;;21.20;99.90;;;;;;5039490;28;20228;-77
2023/07/16 02:03:39;;;;;;;3.20;2.40;;;21.10;99.90;;;;;;5022627;28;20220;-77
2023/07/16 02:06:04;;;;;;;2.87;2.33;;;21.10;99.90;;;;;;5033759;28;20202;-78
2023/07/16 02:08:33;;;;;;;2.97;2.03;;;21.00;99.90;;;;;;5033226;28;20620;-79
2023/07/16 02:10:58;;;;;;;4.60;2.23;;;21.00;99.90;;;;;;5041592;28;20170;-77
2023/07/16 02:13:24;;;;;;;2.53;2.33;;;21.00;99.90;;;;;;5044049;28;20187;-78
2023/07/16 02:15:50;;;;;;;2.30;2.10;;;21.00;99.90;;;;;;5039123;28;20204;-79
2023/07/16 02:18:15;;;;;;;2.50;2.00;;;20.90;99.90;;;;;;5034687;28;20206;-77
2023/07/16 02:20:43;;;;;;;2.87;2.00;;;20.90;99.90;;;;;;5027736;28;20264;-77
2023/07/16 02:23:09;;;;;;;3.80;2.17;;;21.00;99.90;;;;;;5040823;28;20204;-77
2023/07/16 02:25:35;;;;;;;3.23;1.90;;;20.90;99.90;;;;;;5046682;28;20193;-78
2023/07/16 02:28:00;;;;;;;2.50;2.17;;;20.90;99.90;;;;;;5033273;28;20262;-79
2023/07/16 02:30:26;;;;;;;3.43;2.10;;;20.90;99.90;;;;;;5036257;28;20171;-79
2023/07/16 02:32:52;;;;;;;3.53;1.90;;;20.90;99.90;;;;;;5040720;28;20206;-78
2023/07/16 02:35:17;;;;;;;3.63;2.10;;;20.80;99.90;;;;;;5041908;28;20235;-77
2023/07/16 02:37:43;;;;;;;3.17;1.83;;;20.80;99.90;;;;;;5041386;28;20201;-78
2023/07/16 02:40:09;;;;;;;3.23;2.03;;;20.80;99.90;;;;;;5034793;28;20179;-78
2023/07/16 02:42:35;;;;;;;3.33;2.10;;;20.70;99.90;;;;;;5032919;28;20183;-79
2023/07/16 02:45:00;;;;;;;3.90;2.27;;;20.70;99.90;;;;;;5039898;28;20309;-78
2023/07/16 02:47:26;;;;;;;3.40;2.20;;;20.70;99.90;;;;;;5032951;28;20252;-77
2023/07/16 02:49:52;;;;;;;4.70;2.33;;;20.70;99.90;;;;;;5034731;28;20208;-78
2023/07/16 02:52:18;;;;;;;5.10;2.13;;;20.60;99.90;;;;;;5033416;28;20258;-78
2023/07/16 02:54:43;;;;;;;6.33;2.23;;;20.60;99.90;;;;;;5033161;28;20225;-78
2023/07/16 02:57:09;;;;;;;3.53;2.40;;;20.50;99.90;;;;;;5032906;28;20178;-78
2023/07/16 02:59:35;;;;;;;3.40;2.30;;;20.50;99.90;;;;;;5025163;28;20228;-77
2023/07/16 03:02:01;;;;;;;3.10;2.20;;;20.50;99.90;;;;;;5032099;28;20183;-78
2023/07/16 03:04:27;;;;;;;3.20;2.13;;;20.40;99.90;;;;;;5032952;28;20228;-78
2023/07/16 03:06:53;;;;;;;3.43;2.10;;;20.40;99.90;;;;;;5033148;28;20181;-77
2023/07/16 03:09:19;;;;;;;3.20;2.03;;;20.30;99.90;;;;;;5031618;28;20174;-78
2023/07/16 03:11:44;;;;;;;4.50;2.30;;;20.30;99.90;;;;;;5031622;28;20555;-77
2023/07/16 03:14:10;;;;;;;2.73;2.10;;;20.30;99.90;;;;;;5036556;28;20257;-77
2023/07/16 03:16:36;;;;;;;3.20;2.00;;;20.30;99.90;;;;;;5031782;28;20209;-78
2023/07/16 03:19:02;;;;;;;3.87;2.07;;;20.30;99.90;;;;;;5044258;28;20688;-77
2023/07/16 03:21:29;;;;;;;3.13;2.00;;;20.30;99.90;;;;;;5018850;28;20215;-77
2023/07/16 03:23:54;;;;;;;3.70;2.10;;;20.10;99.90;;;;;;5030725;28;20230;-78
2023/07/16 03:26:20;;;;;;;4.63;2.23;;;20.10;99.90;;;;;;5028939;28;20242;-80
2023/07/16 03:28:47;;;;;;;5.27;2.30;;;20.00;99.90;;;;;;5034623;28;20182;-78
2023/07/16 03:31:13;;;;;;;3.50;2.10;;;20.00;99.90;;;;;;5051795;28;20176;-77
2023/07/16 03:33:41;;;;;;;4.23;2.27;;;20.00;99.90;;;;;;5030911;28;20257;-78
2023/07/16 03:36:07;;;;;;;2.47;2.03;;;20.00;99.90;;;;;;5031637;28;20199;-78
2023/07/16 03:38:33;;;;;;;5.07;2.30;;;20.00;99.90;;;;;;5034167;28;20185;-78
2023/07/16 03:40:59;;;;;;;4.47;2.03;;;20.00;99.90;;;;;;5031742;28;20183;-78
2023/07/16 03:43:26;;;;;;;5.10;2.33;;;19.90;99.90;;;;;;5033053;28;20688;-78
2023/07/16 03:45:58;;;;;;;5.23;2.20;;;19.90;99.90;;;;;;5031060;28;20201;-78
2023/07/16 03:48:24;;;;;;;3.67;2.30;;;19.90;99.90;;;;;;5031820;28;20171;-77
2023/07/16 03:50:50;;;;;;;5.53;2.30;;;19.80;99.90;;;;;;5014286;28;20257;-78
2023/07/16 03:53:15;;;;;;;5.53;2.53;;;19.70;99.90;;;;;;5032340;28;20273;-78
2023/07/16 03:55:41;;;;;;;5.40;2.43;;;19.80;99.90;;;;;;5039639;28;20202;-78
2023/07/16 03:58:07;;;;;;;6.97;2.07;;;19.80;99.90;;;;;;5038897;28;20724;-78
2023/07/16 04:00:33;;;;;;;5.13;2.20;;;19.80;99.90;;;;;;5041659;28;20190;-77
2023/07/16 04:02:59;;;;;;;3.43;2.10;;;19.90;99.90;;;;;;5039484;28;20578;-77
2023/07/16 04:05:25;;;;;;;3.20;2.07;;;19.90;99.90;;;;;;5038806;28;20215;-77
2023/07/16 04:07:51;;;;;;;3.27;2.10;;;19.80;99.90;;;;;;5030460;28;20649;-78
2023/07/16 04:10:16;;;;;;;4.53;2.27;;;19.90;99.90;;;;;;5036631;28;20191;-78
2023/07/16 04:12:42;;;;;;;4.80;2.10;;;19.90;99.90;;;;;;5033984;28;20194;-78
2023/07/16 04:15:11;;;;;;;3.23;2.20;;;19.90;99.90;;;;;;5034341;28;20233;-78
2023/07/16 04:17:37;;;;;;;3.97;2.37;;;19.90;99.90;;;;;;5031900;28;20235;-77
2023/07/16 04:20:06;;;;;;;5.17;2.30;;;19.90;99.90;;;;;;5025356;28;20190;-78
2023/07/16 04:22:33;;;;;;;4.93;2.10;;;19.90;99.90;;;;;;5038460;28;20260;-78
2023/07/16 04:24:59;;;;;;;4.13;2.20;;;19.80;99.90;;;;;;5039381;28;20206;-78
2023/07/16 04:27:25;;;;;;;4.93;2.23;;;19.80;99.90;;;;;;5035521;28;20182;-78
2023/07/16 04:29:50;;;;;;;4.43;2.20;;;19.80;99.90;;;;;;5031752;28;20183;-78
2023/07/16 04:32:16;;;;;;;7.60;2.60;;;19.80;99.90;;;;;;5029355;28;20249;-79
2023/07/16 04:34:42;;;;;;;7.53;2.37;;;19.80;99.90;;;;;;5038882;28;20199;-77
2023/07/16 04:37:07;;;;;;;4.13;2.40;;;19.80;99.90;;;;;;5043120;28;20178;-78
2023/07/16 04:39:33;;;;;;;7.43;2.73;;;19.80;99.90;;;;;;5031281;28;20183;-77
2023/07/16 04:41:59;;;;;;;4.37;2.33;;;19.80;99.90;;;;;;5041694;28;20249;-78
2023/07/16 04:44:24;;;;;;;4.93;2.30;;;19.70;99.90;;;;;;5032429;28;20232;-79
2023/07/16 04:46:50;;;;;;;2.47;2.10;;;19.70;99.90;;;;;;5032403;28;20210;-78
2023/07/16 04:49:16;;;;;;;3.03;2.30;;;19.80;99.90;;;;;;5042916;28;20175;-77
2023/07/16 04:51:41;;;;;;;4.73;2.60;;;19.70;99.90;;;;;;5036215;28;20182;-77
2023/07/16 04:54:07;;;;;;;4.10;2.50;;;19.70;99.90;;;;;;5022585;28;20887;-78
2023/07/16 04:56:33;;;;;;;5.33;2.40;;;19.70;99.90;;;;;;5033664;28;20175;-78
2023/07/16 04:58:58;;;;;;;7.03;2.80;;;19.70;99.90;;;;;;5031608;28;20210;-78
2023/07/16 05:01:25;;;;;;;4.37;2.67;;;19.70;99.90;;;;;;5037535;28;20193;-78
2023/07/16 05:03:50;;;;;;;4.70;2.40;;;19.60;99.90;;;;;;5038934;28;20210;-78
2023/07/16 05:06:16;;;;;;;4.40;2.47;;;19.70;99.90;;;;;;5030873;28;20248;-77
2023/07/16 05:08:42;;;;;;;4.30;2.40;;;19.80;99.90;;;;;;5031138;28;20178;-78
2023/07/16 05:11:08;;;;;;;6.13;2.50;;;19.80;99.90;;;;;;5025782;28;20175;-77
2023/07/16 05:13:33;;;;;;;8.23;2.73;;;19.90;99.90;;;;;;5035843;28;20178;-78
2023/07/16 05:15:59;;;;;;;4.90;2.40;;;19.80;99.90;;;;;;5031022;28;20215;-77
2023/07/16 05:18:25;;;;;;;3.73;2.70;;;19.90;99.90;;;;;;5037704;28;20190;-78
2023/07/16 05:20:51;;;;;;;4.30;2.47;;;19.90;99.90;;;;;;5043965;28;20282;-77
2023/07/16 05:23:16;;;;;;;4.90;2.70;;;19.90;99.90;;;;;;5031401;28;20189;-79
2023/07/16 05:25:47;;;;;;;4.13;2.73;;;19.90;99.90;;;;;;5041511;28;20196;-78
2023/07/16 05:28:13;;;;;;;3.17;2.17;;;19.90;99.90;;;;;;5024864;28;20178;-78
2023/07/16 05:30:39;;;;;;;3.63;2.30;;;19.90;99.90;;;;;;5035081;28;20218;-77
2023/07/16 05:33:04;;;;;;;3.47;2.20;;;19.90;99.90;;;;;;5032531;28;20184;-78
2023/07/16 05:35:30;;;;;;;4.27;2.30;;;19.90;99.90;;;;;;5028554;28;20741;-78
2023/07/16 05:37:56;;;;;;;4.73;2.30;;;19.90;99.90;;;;;;5038352;28;20185;-78
2023/07/16 05:40:22;;;;;;;5.57;2.00;;;19.90;99.90;;;;;;5034816;28;20174;-78
2023/07/16 05:42:47;;;;;;;4.47;2.40;;;20.00;99.90;;;;;;5033164;28;20174;-78
2023/07/16 05:45:13;;;;;;;3.90;2.03;;;20.00;99.90;;;;;;5037049;28;20225;-77
2023/07/16 05:47:39;;;;;;;4.43;2.10;;;20.10;99.90;;;;;;5037477;28;20177;-77
2023/07/16 05:50:05;;;;;;;3.60;2.20;;;20.10;99.90;;;;;;5037895;28;20522;-78
2023/07/16 05:52:31;;;;;;;8.10;2.27;;;20.10;99.90;;;;;;5041984;28;20174;-78
2023/07/16 05:54:57;;;;;;;5.13;2.23;;;20.20;99.90;;;;;;5031041;28;20302;-78
2023/07/16 05:57:23;;;;;;;3.60;1.90;;;20.20;99.90;;;;;;5022909;28;20274;-79
2023/07/16 05:59:48;;;;;;;5.87;2.50;;;20.30;99.90;;;;;;5027791;28;20411;-78
2023/07/16 06:02:14;;;;;;;4.40;2.53;;;20.40;99.90;;;;;;5036972;28;20185;-78
2023/07/16 06:04:40;;;;;;;3.27;2.10;;;20.50;99.90;;;;;;5036832;28;20814;-79
2023/07/16 06:07:06;;;;;;;5.10;2.10;;;20.50;99.90;;;;;;5036452;28;20178;-77
2023/07/16 06:09:33;;;;;;;6.03;2.50;;;20.50;99.90;;;;;;5039642;28;20178;-78
2023/07/16 06:11:58;;;;;;;4.47;2.30;;;20.60;99.90;;;;;;5030179;28;20185;-77
2023/07/16 06:14:24;;;;;;;4.77;2.10;;;20.60;99.90;;;;;;5038150;28;20206;-77
2023/07/16 06:16:50;;;;;;;5.73;2.33;;;20.60;99.90;;;;;;5034038;28;20528;-78
2023/07/16 06:19:16;;;;;;;5.17;2.37;;;20.60;99.90;;;;;;5030182;28;20181;-78
2023/07/16 06:21:41;;;;;;;5.43;2.63;;;20.60;99.90;;;;;;5031649;28;20570;-79
2023/07/16 06:24:07;;;;;;;5.77;2.40;;;20.50;99.90;;;;;;5030749;28;20209;-78
2023/07/16 06:26:33;;;;;;;5.50;2.50;;;20.50;99.90;;;;;;5035853;28;20162;-79
2023/07/16 06:28:58;;;;;;;3.63;2.23;;;20.60;99.90;;;;;;5036777;28;20174;-78
2023/07/16 06:31:24;;;;;;;5.87;2.60;;;20.60;99.90;;;;;;5034289;28;20228;-78
2023/07/16 06:33:50;;;;;;;5.97;2.00;;;20.70;99.90;;;;;;5034451;28;20186;-79
2023/07/16 06:36:16;;;;;;;7.70;2.60;;;20.70;99.90;;;;;;5033578;28;20206;-79
2023/07/16 06:38:42;;;;;;;3.40;2.30;;;20.80;99.90;;;;;;5033749;28;20626;-77
2023/07/16 06:41:07;;;;;;;3.73;2.40;;;20.80;99.90;;;;;;5035584;28;20179;-77
2023/07/16 06:43:33;;;;;;;4.80;2.03;;;20.90;99.90;;;;;;5042144;28;20293;-77
2023/07/16 06:45:59;;;;;;;5.40;2.60;;;21.00;99.90;;;;;;5048370;28;20665;-78
2023/07/16 06:48:25;;;;;;;4.70;2.40;;;21.10;99.90;;;;;;5037903;28;20186;-77
2023/07/16 06:50:51;;;;;;;5.37;2.20;;;21.20;98.20;;;;;;5034839;28;20194;-78
2023/07/16 06:53:17;;;;;;;5.10;2.40;;;21.40;99.10;;;;;;5038103;28;20175;-78
2023/07/16 06:55:42;;;;;;;4.73;2.47;;;21.60;97.50;;;;;;5038114;28;20256;-77
2023/07/16 06:58:10;;;;;;;4.90;2.30;;;21.70;94.70;;;;;;5040748;28;20181;-77
2023/07/16 07:00:36;;;;;;;7.73;2.73;;;21.70;94.20;;;;;;5041929;28;20182;-77
2023/07/16 07:03:02;;;;;;;4.63;2.40;;;21.70;91.20;;;;;;5046556;28;20174;-77
2023/07/16 07:05:28;;;;;;;7.03;2.63;;;21.70;90.40;;;;;;5034459;28;20206;-77
2023/07/16 07:07:53;;;;;;;5.40;2.63;;;21.70;86.00;;;;;;5050212;28;20173;-78
2023/07/16 07:10:19;;;;;;;5.10;2.37;;;21.80;89.80;;;;;;5036694;28;20182;-79
2023/07/16 07:12:45;;;;;;;10.50;2.43;;;22.00;89.40;;;;;;5036473;28;20185;-77
2023/07/16 07:15:10;;;;;;;6.67;2.60;;;22.00;81.70;;;;;;5040252;28;20753;-78
2023/07/16 07:17:36;;;;;;;5.37;2.80;;;22.00;78.70;;;;;;5038817;28;20177;-77
2023/07/16 07:20:03;;;;;;;7.67;2.53;;;21.90;80.70;;;;;;5046706;28;20187;-78
2023/07/16 07:22:29;;;;;;;6.00;2.60;;;21.70;76.60;;;;;;5034086;28;20261;-77
2023/07/16 07:24:54;;;;;;;6.93;3.20;;;21.50;79.50;;;;;;5037046;28;20777;-77
2023/07/16 07:27:20;;;;;;;6.70;2.77;;;21.50;80.90;;;;;;5039682;28;20181;-77
2023/07/16 07:29:51;;;;;;;6.37;2.90;;;21.50;78.70;;;;;;5031276;28;20183;-73
2023/07/16 07:32:20;;;;;;;7.20;2.53;;;21.40;78.00;;;;;;5024951;28;20197;-72
2023/07/16 07:34:45;;;;;;;3.33;2.20;;;21.50;81.70;;;;;;5033856;28;20286;-75
2023/07/16 07:37:11;;;;;;;9.33;3.00;;;21.70;82.30;;;;;;5033406;28;20278;-73
2023/07/16 07:39:37;;;;;;;7.40;2.90;;;21.80;77.20;;;;;;5031309;28;20191;-77
2023/07/16 07:42:03;;;;;;;3.83;2.40;;;21.70;75.20;;;;;;5031848;28;20228;-75
2023/07/16 07:44:29;;;;;;;5.60;2.70;;;21.70;74.40;;;;;;5032525;28;20594;-75
2023/07/16 07:46:54;;;;;;;4.63;2.90;;;21.80;72.90;;;;;;5041157;28;21479;-75
2023/07/16 07:49:20;;;;;;;5.87;2.83;;;21.80;72.00;;;;;;5033009;28;20210;-75
2023/07/16 07:51:49;;;;;;;7.00;2.80;;;21.70;70.90;;;;;;5032958;28;20174;-75
2023/07/16 07:54:15;;;;;;;5.40;2.77;;;21.70;71.00;;;;;;5031266;28;20245;-76
2023/07/16 07:56:40;;;;;;;5.60;2.80;;;21.70;70.30;;;;;;5025953;28;20205;-75
2023/07/16 07:59:06;;;;;;;7.23;3.00;;;21.80;69.10;;;;;;5031594;28;20654;-75
2023/07/16 08:01:32;;;;;;;5.00;2.67;;;21.90;68.60;;;;;;5035843;28;20214;-75
2023/07/16 08:03:58;;;;;;;5.60;2.73;;;21.90;68.60;;;;;;5038885;28;20208;-75
2023/07/16 08:06:24;;;;;;;6.77;2.73;;;22.00;66.10;;;;;;5031425;28;20179;-75
2023/07/16 08:08:49;;;;;;;6.67;2.93;;;22.00;66.60;;;;;;5030066;28;20186;-76
2023/07/16 08:11:15;;;;;;;4.50;2.47;;;22.20;66.90;;;;;;5031587;28;20554;-73
2023/07/16 08:13:41;;;;;;;5.87;2.33;;;22.30;66.20;;;;;;5031661;28;20174;-75
2023/07/16 08:16:07;;;;;;;5.03;3.00;;;22.50;66.40;;;;;;5030126;28;20197;-73
2023/07/16 08:18:33;;;;;;;5.00;2.50;;;22.50;65.00;;;;;;5029313;28;20189;-73
2023/07/16 08:20:58;;;;;;;4.20;2.57;;;22.50;64.10;;;;;;5029401;28;20193;-74
2023/07/16 08:23:24;;;;;;;4.40;2.57;;;22.50;64.50;;;;;;5030587;28;20182;-73
2023/07/16 08:25:51;;;;;;;4.63;2.60;;;22.40;64.10;;;;;;5030994;28;20281;-73
2023/07/16 08:28:17;;;;;;;5.27;2.77;;;22.40;63.70;;;;;;5029141;28;20187;-73
2023/07/16 08:30:45;;;;;;;5.87;2.60;;;22.20;63.20;;;;;;5028816;28;20650;-73
2023/07/16 08:33:11;;;;;;;5.37;2.87;;;22.20;64.00;;;;;;5028189;28;20179;-73
2023/07/16 08:35:39;;;;;;;6.03;2.40;;;22.30;64.40;;;;;;5029760;28;20628;-73
2023/07/16 08:38:06;;;;;;;4.73;2.80;;;22.30;65.10;;;;;;5031139;28;20175;-73
2023/07/16 08:40:34;;;;;;;6.13;2.77;;;22.50;66.30;;;;;;5029423;28;20189;-74
2023/07/16 08:43:01;;;;;;;5.60;2.50;;;22.60;66.90;;;;;;5029498;28;20181;-73
2023/07/16 08:45:30;;;;;;;4.93;2.60;;;22.70;67.40;;;;;;5029318;28;20210;-73
2023/07/16 08:47:56;;;;;;;5.93;2.57;;;22.80;64.70;;;;;;5031581;28;20182;-75
2023/07/16 08:50:24;;;;;;;6.07;2.30;;;22.90;63.90;;;;;;5033794;28;20193;-82
2023/07/16 08:52:51;;;;;;;4.50;2.80;;;23.00;63.10;;;;;;4996740;28;20218;-77
2023/07/16 08:55:17;;;;;;;6.00;2.27;;;23.10;62.20;;;;;;5031137;28;20194;-77
2023/07/16 08:57:43;;;;;;;7.97;2.60;;;23.20;61.80;;;;;;5030638;28;20526;-77
2023/07/16 09:00:10;;;;;;;5.03;2.30;;;23.30;62.20;;;;;;5031569;28;20181;-74
2023/07/16 09:02:35;;;;;;;5.10;2.60;;;23.30;62.80;;;;;;5031946;28;20182;-74
2023/07/16 09:05:04;;;;;;;5.67;2.40;;;23.20;62.70;;;;;;5031553;28;20576;-74
2023/07/16 09:07:29;;;;;;;4.50;2.60;;;23.20;63.00;;;;;;5027465;28;20178;-74
2023/07/16 09:09:58;;;;;;;4.83;2.33;;;23.20;61.90;;;;;;5031291;28;20186;-74
2023/07/16 09:12:24;;;;;;;4.97;2.23;;;23.10;62.50;;;;;;5027991;28;20171;-74
2023/07/16 09:14:50;;;;;;;3.40;2.47;;;23.20;62.20;;;;;;5031126;28;20251;-74
2023/07/16 09:17:28;;;;;;;4.83;2.53;;;23.40;62.10;;;;;;5031049;28;20617;-74
2023/07/16 09:20:02;;;;;;;5.47;2.20;;;23.60;62.10;;;;;;5025808;28;20217;-76
2023/07/16 09:22:32;;;;;;;4.50;2.30;;;23.50;61.00;;;;;;5030958;28;20190;-75
2023/07/16 09:25:00;;;;;;;5.10;2.50;;;23.50;61.20;;;;;;5027726;28;20698;-74
2023/07/16 09:27:30;;;;;;;5.37;2.53;;;23.50;59.10;;;;;;5030488;28;20186;-74
2023/07/16 09:29:56;;;;;;;4.63;2.57;;;23.40;60.20;;;;;;5023185;28;20218;-74
2023/07/16 09:32:22;;;;;;;4.90;2.50;;;23.50;61.20;;;;;;5029955;28;20203;-74
2023/07/16 09:34:51;;;;;;;6.30;2.83;;;23.60;62.30;;;;;;5030406;28;20241;-77
2023/07/16 09:37:18;;;;;;;5.30;2.50;;;23.70;60.60;;;;;;5029593;28;20262;-74
2023/07/16 09:39:46;;;;;;;2.87;2.03;;;23.80;60.70;;;;;;5029112;28;20178;-77
2023/07/16 09:42:13;;;;;;;4.67;2.20;;;23.90;61.20;;;;;;5026849;28;20261;-74
2023/07/16 09:44:41;;;;;;;7.47;3.13;;;23.90;58.70;;;;;;5025207;28;20210;-74
2023/07/16 09:47:08;;;;;;;3.23;2.23;;;23.90;58.50;;;;;;5030221;28;20338;-74
2023/07/16 09:49:34;;;;;;;6.03;2.47;;;24.00;59.10;;;;;;5030975;28;20615;-75
2023/07/16 09:52:02;;;;;;;5.67;2.90;;;24.20;59.70;;;;;;5030644;28;20229;-76
2023/07/16 09:54:32;;;;;;;3.53;2.30;;;24.20;59.10;;;;;;5027494;28;20214;-77
2023/07/16 09:57:00;;;;;;;4.97;2.50;;;24.20;58.30;;;;;;5029750;28;20209;-74
2023/07/16 09:59:29;;;;;;;3.90;2.23;;;24.20;59.10;;;;;;5029585;28;20175;-74
2023/07/16 10:01:56;;;;;;;6.20;2.40;;;24.20;58.30;;;;;;5029283;28;20188;-74
2023/07/16 10:04:22;;;;;;;4.33;2.30;;;24.40;58.00;;;;;;5030203;28;20203;-77
2023/07/16 10:06:56;;;;;;;4.03;2.37;;;24.50;57.70;;;;;;5030608;28;20178;-74
2023/07/16 10:09:42;;;;;;;3.53;2.37;;;24.50;57.30;;;;;;5032588;28;20188;-74
2023/07/16 10:12:15;;;;;;;6.40;2.57;;;24.60;56.90;;;;;;5027448;28;20233;-74
2023/07/16 10:14:42;;;;;;;6.60;2.50;;;24.70;56.50;;;;;;5032940;28;20287;-74
2023/07/16 10:17:23;;;;;;;7.50;2.60;;;24.80;56.40;;;;;;5033318;28;20552;-74
2023/07/16 10:19:56;;;;;;;5.67;2.60;;;25.10;56.00;;;;;;5032832;28;20185;-76
2023/07/16 10:22:33;;;;;;;5.43;2.83;;;25.40;55.40;;;;;;5033250;28;20177;-76
2023/07/16 10:24:59;;;;;;;5.33;2.50;;;25.40;54.20;;;;;;5028722;28;20225;-77
2023/07/16 10:27:29;;;;;;;4.17;2.50;;;25.40;53.50;;;;;;5034097;28;20182;-77
2023/07/16 10:29:54;;;;;;;4.70;2.53;;;25.60;53.50;;;;;;5033399;28;20668;-76
2023/07/16 10:32:21;;;;;;;6.77;2.40;;;25.60;53.20;;;;;;5028771;28;20170;-76
2023/07/16 10:34:46;;;;;;;6.70;2.30;;;25.50;53.10;;;;;;5033143;28;20207;-76
2023/07/16 10:37:12;;;;;;;3.07;2.13;;;25.60;53.50;;;;;;5032427;28;20194;-75
2023/07/16 10:39:52;;;;;;;5.07;2.60;;;25.70;53.80;;;;;;5033854;28;20181;-79
2023/07/16 10:42:20;;;;;;;4.17;2.40;;;25.80;53.30;;;;;;5032987;28;20181;-76
2023/07/16 10:44:50;;;;;;;4.93;2.30;;;26.00;53.00;;;;;;5033043;28;20225;-75
2023/07/16 10:47:33;;;;;;;5.40;2.63;;;26.20;53.20;;;;;;5033081;28;20193;-76
2023/07/16 10:50:00;;;;;;;3.73;2.33;;;26.10;52.20;;;;;;5029288;28;20677;-76
2023/07/16 10:52:26;;;;;;;5.67;2.50;;;26.20;53.10;;;;;;5033393;28;21969;-76
2023/07/16 10:54:57;;;;;;;4.30;2.53;;;26.20;52.10;;;;;;5035897;28;20216;-78
2023/07/16 10:57:24;;;;;;;5.33;2.57;;;26.10;52.60;;;;;;5034092;28;20170;-76
2023/07/16 10:59:55;;;;;;;5.13;2.70;;;26.00;52.10;;;;;;5032865;28;20198;-76
2023/07/16 11:02:23;;;;;;;4.43;2.40;;;26.10;52.40;;;;;;5033312;28;20171;-76
2023/07/16 11:04:50;;;;;;;5.90;2.80;;;26.10;52.60;;;;;;5029453;28;20214;-73
2023/07/16 11:07:16;;;;;;;5.20;2.57;;;26.10;52.00;;;;;;5031673;28;20182;-73
2023/07/16 11:09:48;;;;;;;4.57;2.27;;;26.10;52.00;;;;;;5032971;28;20339;-73
2023/07/16 11:12:24;;;;;;;4.50;2.50;;;26.30;51.80;;;;;;5029827;28;20619;-74
2023/07/16 11:14:53;;;;;;;5.30;2.40;;;26.50;51.50;;;;;;5030689;28;20201;-74
2023/07/16 11:17:20;;;;;;;3.80;2.50;;;26.40;52.20;;;;;;5035131;28;20529;-75
2023/07/16 11:19:51;;;;;;;4.37;2.57;;;26.50;51.90;;;;;;5033630;28;20196;-73
2023/07/16 11:22:18;;;;;;;3.87;2.40;;;26.30;51.10;;;;;;5032286;28;20178;-83
2023/07/16 11:24:49;;;;;;;4.20;2.43;;;26.20;50.80;;;;;;5015165;28;20206;-77
2023/07/16 11:27:18;;;;;;;4.93;2.33;;;26.10;51.10;;;;;;5032012;28;20190;-80
2023/07/16 11:29:57;;;;;;;4.80;2.20;;;25.90;51.50;;;;;;5032522;28;20202;-77
2023/07/16 11:32:46;;;;;;;4.20;2.40;;;26.10;50.50;;;;;;5032956;28;20275;-77
2023/07/16 11:35:17;;;;;;;5.57;2.40;;;26.60;50.90;;;;;;5019654;28;20222;-78
2023/07/16 11:37:44;;;;;;;5.50;2.63;;;26.80;50.90;;;;;;5031708;28;20174;-77
2023/07/16 11:40:14;;;;;;;5.07;2.53;;;27.10;50.20;;;;;;5030455;28;20264;-78
2023/07/16 11:42:41;;;;;;;4.70;2.60;;;27.20;49.50;;;;;;5034303;28;20236;-79
2023/07/16 11:45:19;;;;;;;4.87;2.30;;;27.20;49.30;;;;;;5032367;28;20213;-76
2023/07/16 11:47:45;;;;;;;4.57;2.50;;;27.20;48.20;;;;;;5029141;28;20236;-73
2023/07/16 11:50:11;;;;;;;3.73;2.40;;;27.70;49.10;;;;;;5032124;28;20187;-77
2023/07/16 11:52:38;;;;;;;4.00;2.40;;;28.10;47.00;;;;;;5031805;28;20681;-78
2023/07/16 11:55:05;;;;;;;3.93;2.50;;;28.40;46.70;;;;;;5031258;28;20252;-76
2023/07/16 11:57:31;;;;;;;3.87;2.30;;;28.70;46.10;;;;;;5030365;28;20226;-75
2023/07/16 11:59:57;;;;;;;4.83;2.40;;;29.00;45.40;;;;;;5030284;28;20214;-76
2023/07/16 12:02:25;;;;;;;4.17;2.60;;;29.60;45.00;;;;;;5025219;28;20641;-78
2023/07/16 12:04:50;;;;;;;5.43;2.50;;;30.10;44.10;;;;;;5031591;28;20575;-76
2023/07/16 12:07:37;;;;;;;3.40;2.33;;;30.40;43.20;;;;;;5032039;28;20174;-77
2023/07/16 12:10:06;;;;;;;3.23;2.50;;;30.90;42.90;;;;;;5030774;28;20177;-76
2023/07/16 12:12:33;;;;;;;6.73;2.50;;;31.30;42.50;;;;;;5031166;28;20181;-76
2023/07/16 12:15:02;;;;;;;3.77;2.40;;;31.40;42.70;;;;;;5031879;28;20236;-77
2023/07/16 12:17:28;;;;;;;4.87;2.60;;;;;;;;;;5031991;28;20181;-78
2023/07/16 12:19:54;;;;;;;4.30;2.40;;;31.70;41.90;;;;;;5031151;28;20193;-77
2023/07/16 12:22:20;;;;;;;2.77;2.07;;;30.60;42.40;;;;;;5031928;28;20180;-76
2023/07/16 12:24:46;;;;;;;4.00;2.37;;;30.80;42.80;;;;;;5031502;28;20222;-77
2023/07/16 12:27:14;;;;;;;3.10;2.40;;;31.40;42.10;;;;;;5032657;28;20167;-77
2023/07/16 12:29:39;;;;;;;3.57;2.43;;;32.00;40.90;;;;;;5031272;28;20231;-77
2023/07/16 12:32:06;;;;;;;3.20;2.40;;;32.50;40.60;;;;;;5028374;28;20182;-78
2023/07/16 12:34:31;;;;;;;3.53;2.40;;;32.80;39.70;;;;;;5031758;28;20197;-77
2023/07/16 12:36:57;;;;;;;4.00;2.13;;;32.80;39.50;;;;;;5032243;28;20653;-78
2023/07/16 12:39:23;;;;;;;4.27;2.50;;;33.00;39.30;;;;;;5032205;28;20190;-77
2023/07/16 12:41:49;;;;;;;4.60;2.40;;;33.20;39.00;;;;;;5031217;28;20562;-77
2023/07/16 12:44:15;;;;;;;2.90;2.37;;;33.30;39.30;;;;;;5031114;28;20232;-77
2023/07/16 12:46:41;;;;;;;3.47;2.33;;;33.30;39.00;;;;;;5032935;28;20657;-77